Svenner — V7RM4 — position and weather

sailwx.info

Track history (hours):
 
Tides and Currents Weather Stations Pressure Air Temp Water Temp Dewpoint Dewpoint Depression Visibility Wind Speed Wind Dir Waves Ship Positions

Svenner

Last reported at 2017-Oct-18 09:25 UTC. Time now 2017-Oct-19 09:12 UTC.
Position N 36°47' E 012°60'.

Length 189 m; draft 6.8 m.

Type: Cargo ship. MMSI: 538003540.

Date/timePositionNaut miles runAvg speedWind from/ knotsBaromVisibWave heightAir tempDewpointWater temp
2017-Oct-18 09:25N 36°47' E 012°60'611.6
2017-Oct-18 08:53N 36°45' E 013°07'611.8
2017-Oct-18 08:24N 36°43' E 013°13'811.9
2017-Oct-18 07:42N 36°39' E 013°23'212.0
2017-Oct-18 07:30N 36°38' E 013°26'911.8
2017-Oct-18 06:43N 36°34' E 013°36'211.6
2017-Oct-18 06:30N 36°33' E 013°39'611.7
2017-Oct-18 06:00N 36°30' E 013°45'611.6
2017-Oct-18 05:30N 36°28' E 013°52'611.7
2017-Oct-18 05:00N 36°26' E 013°59'611.6
2017-Oct-18 04:30N 36°24' E 014°05'611.6
2017-Oct-18 04:00N 36°22' E 014°12'611.6
2017-Oct-18 03:30N 36°20' E 014°19'611.6
2017-Oct-18 03:00N 36°20' E 014°26'611.5
2017-Oct-18 02:30N 36°20' E 014°33'611.5
2017-Oct-18 02:00N 36°20' E 014°40'611.4
2017-Oct-18 01:30N 36°20' E 014°47'611.2
2017-Oct-18 01:00N 36°20' E 014°54'611.4
2017-Oct-18 00:30N 36°19' E 015°01'611.2
2017-Oct-18 00:00N 36°20' E 015°08'611.5
2017-Oct-17 23:30N 36°20' E 015°15'9912.1
2017-Oct-17 15:16N 36°20' E 017°19'612.3
2017-Oct-17 14:49N 36°20' E 017°26'412.2
2017-Oct-17 14:30N 36°20' E 017°30'612.2
2017-Oct-17 13:59N 36°20' E 017°38'612.1
2017-Oct-17 13:30N 36°20' E 017°45'611.9
2017-Oct-17 13:00N 36°20' E 017°53'611.6
2017-Oct-17 12:30N 36°20' E 017°60'611.6
2017-Oct-17 12:00N 36°20' E 018°07'611.6
2017-Oct-17 11:31N 36°20' E 018°14'611.6
2017-Oct-17 11:00N 36°20' E 018°22'611.6
2017-Oct-17 10:30N 36°20' E 018°29'611.8
2017-Oct-17 10:00N 36°20' E 018°36'611.7
2017-Oct-17 09:30N 36°20' E 018°43'611.6
2017-Oct-17 09:00N 36°20' E 018°51'611.6
2017-Oct-17 08:29N 36°20' E 018°58'611.6
2017-Oct-17 08:00N 36°20' E 019°05'1111.6
2017-Oct-17 07:04N 36°20' E 019°18'111.8
2017-Oct-17 06:58N 36°20' E 019°20'612.7
2017-Oct-17 06:30N 36°20' E 019°27'611.5
2017-Oct-17 06:00N 36°20' E 019°34'610.4
2017-Oct-17 05:26N 36°20' E 019°42'410.4
2017-Oct-17 05:00N 36°20' E 019°47'510.5
2017-Oct-17 04:30N 36°20' E 019°54'1610.5
2017-Oct-17 02:57N 36°20' E 020°14'610.2
2017-Oct-17 02:23N 36°20' E 020°21'510.1
2017-Oct-17 01:54N 36°20' E 020°27'410.2
2017-Oct-17 01:30N 36°20' E 020°32'510.4
2017-Oct-17 01:01N 36°20' E 020°39'510.1
2017-Oct-17 00:30N 36°20' E 020°45'810.6
2017-Oct-16 23:47N 36°20' E 020°54'1010.6
2017-Oct-16 22:51N 36°20' E 021°07'410.6
2017-Oct-16 22:30N 36°20' E 021°11'1710.4
2017-Oct-16 20:52N 36°20' E 021°32'410.5
2017-Oct-16 20:29N 36°20' E 021°37'510.1
2017-Oct-16 20:00N 36°20' E 021°43'510.2
2017-Oct-16 19:30N 36°20' E 021°50'510.2
2017-Oct-16 19:00N 36°20' E 021°56'510.2
2017-Oct-16 18:30N 36°20' E 022°02'112 9.9
2017-Oct-16 07:15N 37°23' E 023°58'1112.7
2017-Oct-16 06:22N 37°33' E 024°05'1312.1
2017-Oct-16 05:17N 37°45' E 024°13'14210.1
2017-Oct-15 15:13N 39°49' E 025°42'1 5.8
2017-Oct-15 15:00N 39°50' E 025°42'5 4.0
2017-Oct-15 13:44N 39°54' E 025°47'310.2
2017-Oct-15 13:30N 39°55' E 025°50'811.3
2017-Oct-15 12:46N 40°00' E 025°58'1011.3
2017-Oct-15 11:51N 40°02' E 026°12'  
Track history (hours):
 
Tides and Currents Weather Stations Pressure Air Temp Water Temp Dewpoint Dewpoint Depression Visibility Wind Speed Wind Dir Waves Ship Positions

Svenner

Last reported at 2017-Oct-18 09:25 UTC. Time now 2017-Oct-19 09:12 UTC.
Position N 36°47' E 012°60'.

Length 189 m; draft 6.8 m.

Type: Cargo ship. MMSI: 538003540.

Date/timePositionNaut miles runAvg speedWind from/ knotsBaromVisibWave heightAir tempDewpointWater temp
2017-Oct-18 09:25N 36°47' E 012°60'611.6
2017-Oct-18 08:53N 36°45' E 013°07'611.8
2017-Oct-18 08:24N 36°43' E 013°13'811.9
2017-Oct-18 07:42N 36°39' E 013°23'212.0
2017-Oct-18 07:30N 36°38' E 013°26'911.8
2017-Oct-18 06:43N 36°34' E 013°36'211.6
2017-Oct-18 06:30N 36°33' E 013°39'611.7
2017-Oct-18 06:00N 36°30' E 013°45'611.6
2017-Oct-18 05:30N 36°28' E 013°52'611.7
2017-Oct-18 05:00N 36°26' E 013°59'611.6
2017-Oct-18 04:30N 36°24' E 014°05'611.6
2017-Oct-18 04:00N 36°22' E 014°12'611.6
2017-Oct-18 03:30N 36°20' E 014°19'611.6
2017-Oct-18 03:00N 36°20' E 014°26'611.5
2017-Oct-18 02:30N 36°20' E 014°33'611.5
2017-Oct-18 02:00N 36°20' E 014°40'611.4
2017-Oct-18 01:30N 36°20' E 014°47'611.2
2017-Oct-18 01:00N 36°20' E 014°54'611.4
2017-Oct-18 00:30N 36°19' E 015°01'611.2
2017-Oct-18 00:00N 36°20' E 015°08'611.5
2017-Oct-17 23:30N 36°20' E 015°15'9912.1
2017-Oct-17 15:16N 36°20' E 017°19'612.3
2017-Oct-17 14:49N 36°20' E 017°26'412.2
2017-Oct-17 14:30N 36°20' E 017°30'612.2
2017-Oct-17 13:59N 36°20' E 017°38'612.1
2017-Oct-17 13:30N 36°20' E 017°45'611.9
2017-Oct-17 13:00N 36°20' E 017°53'611.6
2017-Oct-17 12:30N 36°20' E 017°60'611.6
2017-Oct-17 12:00N 36°20' E 018°07'611.6
2017-Oct-17 11:31N 36°20' E 018°14'611.6
2017-Oct-17 11:00N 36°20' E 018°22'611.6
2017-Oct-17 10:30N 36°20' E 018°29'611.8
2017-Oct-17 10:00N 36°20' E 018°36'611.7
2017-Oct-17 09:30N 36°20' E 018°43'611.6
2017-Oct-17 09:00N 36°20' E 018°51'611.6
2017-Oct-17 08:29N 36°20' E 018°58'611.6
2017-Oct-17 08:00N 36°20' E 019°05'1111.6
2017-Oct-17 07:04N 36°20' E 019°18'111.8
2017-Oct-17 06:58N 36°20' E 019°20'612.7
2017-Oct-17 06:30N 36°20' E 019°27'611.5
2017-Oct-17 06:00N 36°20' E 019°34'610.4
2017-Oct-17 05:26N 36°20' E 019°42'410.4
2017-Oct-17 05:00N 36°20' E 019°47'510.5
2017-Oct-17 04:30N 36°20' E 019°54'1610.5
2017-Oct-17 02:57N 36°20' E 020°14'610.2
2017-Oct-17 02:23N 36°20' E 020°21'510.1
2017-Oct-17 01:54N 36°20' E 020°27'410.2
2017-Oct-17 01:30N 36°20' E 020°32'510.4
2017-Oct-17 01:01N 36°20' E 020°39'510.1
2017-Oct-17 00:30N 36°20' E 020°45'810.6
2017-Oct-16 23:47N 36°20' E 020°54'1010.6
2017-Oct-16 22:51N 36°20' E 021°07'410.6
2017-Oct-16 22:30N 36°20' E 021°11'1710.4
2017-Oct-16 20:52N 36°20' E 021°32'410.5
2017-Oct-16 20:29N 36°20' E 021°37'510.1
2017-Oct-16 20:00N 36°20' E 021°43'510.2
2017-Oct-16 19:30N 36°20' E 021°50'510.2
2017-Oct-16 19:00N 36°20' E 021°56'510.2
2017-Oct-16 18:30N 36°20' E 022°02'112 9.9
2017-Oct-16 07:15N 37°23' E 023°58'1112.7
2017-Oct-16 06:22N 37°33' E 024°05'1312.1
2017-Oct-16 05:17N 37°45' E 024°13'14210.1
2017-Oct-15 15:13N 39°49' E 025°42'1 5.8
2017-Oct-15 15:00N 39°50' E 025°42'5 4.0
2017-Oct-15 13:44N 39°54' E 025°47'310.2
2017-Oct-15 13:30N 39°55' E 025°50'811.3
2017-Oct-15 12:46N 40°00' E 025°58'1011.3
2017-Oct-15 11:51N 40°02' E 026°12'  

Dump ship's entire track history